Nomini Grove, Virginia
Current Conditions -  °F | °C
As of 12:35 PM on Thursday 23 Oct 2014 (Local Time) from KXSA Reporting Station
Scattered Clouds Scattered Clouds  
Wind Chill: 64°   Ceiling: Unl
Heat Index: 64°   Visibility: 10mi
Dew Point: 41°   Wind: 13mph
Humidity: 42%   Direction: 320°NW
Pressure: 29.89"   Gusts: 25mph
Location:  37.967°N, 76.7668°W
Report Text: KXSA 231635Z AUTO 32011G22KT 10SM SCT037 18/05 A2989 RMK AO2 T01790048
Loading
Personal Weather Stations






























Interactive Weather Map
Tropical Storm Tracking
New forecast layout! Learn more

10-Day Weather Forecast

Advertisements
Track Severe Weather on mobile